Terminal Aerodrome Forecast
Issued by NWS Charleston, WV

Home | Current Version | Previous Version | Text Only | Print | Product List | Glossary On
Versions: 1 2 3 4 5 6 7 8 9 10 11 12 13 14 15 16 17 18 19 20 21 22 23 24 25 26 27 28 29 30 31
000
FTUS41 KRLX 011724
TAFHTS
TAF
KHTS 011724Z 0118/0218 23004KT P6SM SCT035 SCT080
     FM020000 00000KT P6SM SKC
     FM020500 00000KT 4SM BR SKC
     FM020600 00000KT 1SM BR SCT001 SCT040
     FM020700 00000KT 1/4SM FG VV001
     FM021300 00000KT 2SM BR BKN002
     FM021400 00000KT P6SM SKC
     FM021600 24004KT P6SM SCT030=

USA.gov is the U.S. government's official web portal to all federal, state and local government web resources and services.